Time;durP1;ratioP1;P1;durP2;ratioP2;P2;SDS_P1;SDS_P2;PMS_P1;PMS_P2;Temp;Humidity;BMP_temperature;BMP_pressure;BME280_temperature;BME280_humidity;BME280_pressure;Samples;Min_cycle;Max_cycle;Signal;HPM_P1;HPM_P2
2022/07/24 00:01:43;;;;;;;25.77;18.27;;;;;;;18.65;70.83;101786.84;5114166;28;20069;-59
2022/07/24 00:04:09;;;;;;;26.05;18.13;;;;;;;18.61;71.19;101783.09;5114107;28;20034;-59
2022/07/24 00:06:35;;;;;;;25.70;18.60;;;;;;;18.55;71.29;101785.25;5113689;28;20027;-60
2022/07/24 00:09:00;;;;;;;25.88;18.65;;;;;;;18.54;71.76;101780.81;5113861;28;20372;-59
2022/07/24 00:11:26;;;;;;;24.83;18.25;;;;;;;18.50;71.20;101783.47;5113955;28;20020;-60
2022/07/24 00:13:51;;;;;;;27.35;19.38;;;;;;;18.48;71.69;101780.19;5113917;28;20418;-60
2022/07/24 00:16:17;;;;;;;25.67;18.92;;;;;;;18.40;71.84;101781.06;5113581;28;20020;-59
2022/07/24 00:18:42;;;;;;;25.42;18.55;;;;;;;18.39;71.79;101782.22;5113744;28;20084;-59
2022/07/24 00:21:08;;;;;;;26.15;19.50;;;;;;;18.34;71.91;101782.38;5113250;28;20059;-59
2022/07/24 00:23:33;;;;;;;25.73;19.17;;;;;;;18.29;72.13;101780.59;5113728;28;20030;-59
2022/07/24 00:25:59;;;;;;;24.88;17.75;;;;;;;18.32;71.80;101779.94;5113443;28;20323;-58
2022/07/24 00:28:24;;;;;;;26.15;18.52;;;;;;;18.34;71.46;101779.56;5113106;28;20153;-58
2022/07/24 00:30:50;;;;;;;26.05;18.25;;;;;;;18.35;71.84;101782.06;5113047;28;20138;-58
2022/07/24 00:33:15;;;;;;;26.13;18.67;;;;;;;18.31;71.71;101772.69;5113123;28;20031;-59
2022/07/24 00:35:41;;;;;;;25.00;18.50;;;;;;;18.24;72.07;101772.38;5113424;28;20023;-59
2022/07/24 00:38:06;;;;;;;24.55;17.90;;;;;;;18.23;72.05;101771.53;5111775;28;20030;-59
2022/07/24 00:40:32;;;;;;;25.45;18.38;;;;;;;18.20;71.94;101769.44;5112701;28;20504;-59
2022/07/24 00:42:57;;;;;;;25.58;18.05;;;;;;;18.20;71.91;101777.00;5112654;28;20110;-60
2022/07/24 00:45:24;;;;;;;26.23;18.50;;;;;;;18.13;72.32;101776.72;5112794;28;20023;-60
2022/07/24 00:47:50;;;;;;;25.92;18.55;;;;;;;18.13;72.08;101779.50;5112983;28;20019;-60
2022/07/24 00:50:15;;;;;;;25.65;19.02;;;;;;;18.08;72.49;101783.31;5112495;28;20091;-57
2022/07/24 00:52:43;;;;;;;26.25;18.45;;;;;;;18.02;72.53;101779.88;5112842;28;20020;-60
2022/07/24 00:55:10;;;;;;;27.98;19.20;;;;;;;18.03;72.46;101780.72;5110943;28;20111;-60
2022/07/24 00:57:35;;;;;;;25.55;18.02;;;;;;;18.05;72.15;101781.19;5112354;28;20479;-57
2022/07/24 01:00:01;;;;;;;27.45;19.08;;;;;;;17.99;72.77;101780.56;5112587;28;20102;-59
2022/07/24 01:02:26;;;;;;;27.80;18.83;;;;;;;17.97;72.81;101777.28;5113037;28;20419;-59
2022/07/24 01:04:51;;;;;;;27.88;19.52;;;;;;;17.96;72.91;101780.34;5112881;28;20412;-59
2022/07/24 01:07:17;;;;;;;26.98;19.02;;;;;;;17.93;72.96;101785.50;5112728;28;20031;-60
2022/07/24 01:09:43;;;;;;;26.60;18.92;;;;;;;17.90;73.06;101780.53;5112705;28;20119;-60
2022/07/24 01:12:09;;;;;;;26.08;18.83;;;;;;;17.84;73.44;101776.28;5112404;28;20389;-60
2022/07/24 01:14:34;;;;;;;27.65;18.98;;;;;;;17.84;73.54;101767.91;5112556;28;20024;-60
2022/07/24 01:17:00;;;;;;;25.05;18.02;;;;;;;17.74;74.21;101771.03;5110862;28;20019;-59
2022/07/24 01:19:26;;;;;;;27.02;19.08;;;;;;;17.73;74.25;101770.22;5112035;28;20027;-59
2022/07/24 01:21:53;;;;;;;26.55;18.80;;;;;;;17.74;74.07;101768.25;5112234;28;20366;-59
2022/07/24 01:24:20;;;;;;;26.52;19.17;;;;;;;17.69;74.36;101768.41;5112241;28;20055;-60
2022/07/24 01:26:46;;;;;;;25.13;18.45;;;;;;;17.67;74.25;101765.94;5112153;28;20020;-59
2022/07/24 01:29:12;;;;;;;26.67;19.65;;;;;;;17.62;74.68;101754.91;5112022;28;20110;-59
2022/07/24 01:31:37;;;;;;;27.13;19.85;;;;;;;17.61;74.63;101754.13;5111760;28;20095;-59
2022/07/24 01:34:03;;;;;;;25.98;20.45;;;;;;;17.53;75.37;101754.13;5111971;28;20047;-59
2022/07/24 01:36:28;;;;;;;25.92;18.88;;;;;;;17.55;75.08;101749.00;5112425;28;20055;-59
2022/07/24 01:38:54;;;;;;;26.17;18.65;;;;;;;17.54;75.01;101755.75;5111721;28;20075;-59
2022/07/24 01:41:19;;;;;;;25.55;17.88;;;;;;;17.55;75.01;101751.81;5111871;28;20058;-59
2022/07/24 01:43:44;;;;;;;26.60;18.88;;;;;;;17.48;75.25;101743.91;5111847;28;20054;-59
2022/07/24 01:46:11;;;;;;;26.30;19.20;;;;;;;17.41;75.35;101744.44;5111681;28;20054;-59
2022/07/24 01:48:37;;;;;;;26.10;18.90;;;;;;;17.39;75.49;101741.16;5111357;28;20088;-59
2022/07/24 01:51:02;;;;;;;26.05;18.83;;;;;;;17.37;75.75;101748.25;5111408;28;20040;-60
2022/07/24 01:53:27;;;;;;;26.35;18.92;;;;;;;17.33;75.60;101741.66;5111635;28;20032;-59
2022/07/24 01:55:53;;;;;;;26.02;19.05;;;;;;;17.34;75.48;101743.31;5111647;28;20039;-59
2022/07/24 01:58:19;;;;;;;26.42;19.08;;;;;;;17.29;75.90;101731.13;5111489;28;20050;-59
2022/07/24 02:00:45;;;;;;;26.02;18.52;;;;;;;17.28;76.06;101734.25;5111263;28;20426;-59
2022/07/24 02:03:10;;;;;;;26.15;18.70;;;;;;;17.21;75.97;101734.75;5111561;28;20031;-59
2022/07/24 02:05:36;;;;;;;24.55;18.40;;;;;;;17.23;75.84;101735.25;5111553;28;20020;-59
2022/07/24 02:08:01;;;;;;;24.88;18.13;;;;;;;17.19;76.45;101736.22;5111316;28;20038;-59
2022/07/24 02:10:28;;;;;;;25.67;18.55;;;;;;;17.11;76.27;101732.28;5111228;28;20106;-59
2022/07/24 02:12:54;;;;;;;26.75;18.50;;;;;;;17.23;76.39;101745.63;5110902;28;20024;-59
2022/07/24 02:15:19;;;;;;;26.17;18.65;;;;;;;17.21;76.34;101737.53;5109317;28;20091;-58
2022/07/24 02:17:46;;;;;;;27.02;18.35;;;;;;;17.17;76.87;101749.72;5111014;28;20045;-59
2022/07/24 02:20:12;;;;;;;25.77;18.55;;;;;;;17.15;76.40;101745.28;5111252;28;20023;-59
2022/07/24 02:22:37;;;;;;;25.83;18.08;;;;;;;17.22;76.18;101741.97;5111214;28;20039;-59
2022/07/24 02:25:03;;;;;;;25.35;18.65;;;;;;;17.22;76.33;101749.56;5110996;28;20043;-59
2022/07/24 02:27:28;;;;;;;27.55;18.95;;;;;;;17.12;76.64;101751.53;5110585;28;20023;-59
2022/07/24 02:29:53;;;;;;;27.40;18.42;;;;;;;17.09;76.91;101745.78;5109804;28;20027;-59
2022/07/24 02:32:19;;;;;;;27.20;18.15;;;;;;;17.08;76.99;101747.75;5109378;28;20053;-58
2022/07/24 02:34:44;;;;;;;25.55;18.35;;;;;;;17.13;76.80;101750.41;5111242;28;20023;-58
2022/07/24 02:37:09;;;;;;;25.30;18.13;;;;;;;17.13;76.81;101752.34;5111008;28;20484;-59
2022/07/24 02:39:35;;;;;;;27.67;18.08;;;;;;;17.08;77.03;101746.94;5109001;28;20095;-59
2022/07/24 02:42:00;;;;;;;26.63;18.48;;;;;;;17.05;76.89;101745.59;5110825;28;20068;-59
2022/07/24 02:44:25;;;;;;;27.95;18.15;;;;;;;17.02;77.15;101742.63;5110687;28;20031;-59
2022/07/24 02:46:51;;;;;;;25.95;18.20;;;;;;;16.93;77.48;101742.63;5110862;28;20446;-59
2022/07/24 02:49:16;;;;;;;25.08;18.33;;;;;;;16.88;78.17;101746.41;5111192;28;20151;-59
2022/07/24 02:51:41;;;;;;;26.85;18.92;;;;;;;16.83;78.26;101749.34;5111208;28;20031;-59
2022/07/24 02:54:07;;;;;;;25.08;17.80;;;;;;;16.83;78.17;101755.78;5110926;28;20511;-59
2022/07/24 02:56:32;;;;;;;25.67;18.23;;;;;;;16.78;78.47;101746.72;5110480;28;20451;-59
2022/07/24 02:58:58;;;;;;;27.50;19.33;;;;;;;16.68;78.70;101736.66;5110709;28;20076;-58
2022/07/24 03:01:24;;;;;;;26.88;18.75;;;;;;;16.69;78.99;101732.72;5111661;28;20363;-59
2022/07/24 03:03:49;;;;;;;25.92;17.63;;;;;;;16.71;78.89;101744.41;5115105;28;20028;-59
2022/07/24 03:06:14;;;;;;;25.70;18.88;;;;;;;16.65;79.52;101745.72;5114923;28;20116;-59
2022/07/24 03:08:40;;;;;;;25.98;18.08;;;;;;;16.66;79.24;101742.59;5114758;28;20028;-59
2022/07/24 03:11:05;;;;;;;25.00;18.05;;;;;;;16.65;79.42;101737.34;5114913;28;20427;-59
2022/07/24 03:13:30;;;;;;;25.35;18.02;;;;;;;16.62;79.46;101738.81;5114342;28;20077;-58
2022/07/24 03:15:56;;;;;;;27.05;18.60;;;;;;;16.58;79.90;101745.38;5114373;28;20019;-58
2022/07/24 03:18:21;;;;;;;25.70;18.33;;;;;;;16.55;80.27;101752.41;5114316;28;20019;-58
2022/07/24 03:20:46;;;;;;;25.92;18.33;;;;;;;16.50;80.52;101744.19;5114533;28;20160;-58
2022/07/24 03:23:12;;;;;;;27.05;19.23;;;;;;;16.48;80.44;101752.06;5114332;28;20031;-58
2022/07/24 03:25:37;;;;;;;26.67;18.70;;;;;;;16.47;80.56;101748.47;5114532;28;20022;-59
2022/07/24 03:28:02;;;;;;;25.73;18.33;;;;;;;16.46;80.76;101746.81;5114387;28;20066;-59
2022/07/24 03:30:28;;;;;;;27.75;19.67;;;;;;;16.49;80.63;101740.56;5114471;28;20126;-60
2022/07/24 03:32:53;;;;;;;25.65;19.08;;;;;;;16.50;80.79;101730.25;5114637;28;20126;-59
2022/07/24 03:35:19;;;;;;;27.40;19.88;;;;;;;16.43;81.33;101733.50;5114602;28;20023;-59
2022/07/24 03:37:44;;;;;;;27.83;19.45;;;;;;;16.40;81.51;101736.94;5114320;28;20039;-59
2022/07/24 03:40:10;;;;;;;27.35;19.40;;;;;;;16.31;81.60;101734.13;5113916;28;20055;-59
2022/07/24 03:42:36;;;;;;;26.52;18.67;;;;;;;16.38;81.45;101737.28;5113761;28;20028;-59
2022/07/24 03:45:01;;;;;;;28.13;19.80;;;;;;;16.41;81.49;101740.56;5114182;27;20039;-59
2022/07/24 03:47:26;;;;;;;25.73;19.52;;;;;;;16.44;81.39;101743.53;5113794;28;20031;-59
2022/07/24 03:49:52;;;;;;;26.05;19.60;;;;;;;16.38;81.70;101744.84;5114031;28;20316;-59
2022/07/24 03:52:17;;;;;;;28.38;20.27;;;;;;;16.38;81.81;101744.84;5114144;28;20027;-59
2022/07/24 03:54:43;;;;;;;28.02;19.88;;;;;;;16.32;81.69;101746.09;5113534;28;20092;-59
2022/07/24 03:57:08;;;;;;;26.90;19.90;;;;;;;16.33;82.22;101739.38;5113821;28;20122;-59
2022/07/24 03:59:34;;;;;;;26.30;19.80;;;;;;;16.34;82.74;101733.47;5113776;28;20028;-59
2022/07/24 04:01:59;;;;;;;27.77;19.73;;;;;;;16.32;82.86;101733.00;5113732;28;20161;-58
2022/07/24 04:04:25;;;;;;;26.52;20.05;;;;;;;16.28;82.95;101728.38;5113670;28;20113;-59
2022/07/24 04:06:50;;;;;;;26.90;19.80;;;;;;;16.33;82.65;101729.06;5113484;28;20031;-59
2022/07/24 04:09:16;;;;;;;28.63;20.45;;;;;;;16.35;83.08;101732.31;5113988;28;20047;-59
2022/07/24 04:11:44;;;;;;;27.85;19.67;;;;;;;16.36;82.83;101738.75;5113454;28;20050;-59
2022/07/24 04:14:09;;;;;;;28.45;20.60;;;;;;;16.38;82.80;101739.25;5113470;28;20080;-59
2022/07/24 04:16:34;;;;;;;28.35;20.92;;;;;;;16.43;82.53;101735.50;5111782;28;20494;-59
2022/07/24 04:19:00;;;;;;;27.42;20.38;;;;;;;16.41;83.07;101738.59;5113598;28;20181;-59
2022/07/24 04:21:25;;;;;;;28.65;21.17;;;;;;;16.36;83.07;101736.75;5113369;28;20015;-59
2022/07/24 04:23:50;;;;;;;29.70;21.50;;;;;;;16.38;83.15;101734.47;5113231;28;20035;-59
2022/07/24 04:26:16;;;;;;;29.80;20.52;;;;;;;16.38;83.40;101728.09;5113019;28;20051;-59
2022/07/24 04:28:41;;;;;;;28.38;21.00;;;;;;;16.37;83.39;101727.25;5113345;28;20028;-59
2022/07/24 04:31:07;;;;;;;27.98;21.38;;;;;;;16.41;83.36;101733.00;5113382;28;20110;-59
2022/07/24 04:33:33;;;;;;;29.85;22.10;;;;;;;16.42;83.49;101743.03;5112959;28;20099;-59
2022/07/24 04:35:58;;;;;;;31.02;21.92;;;;;;;16.47;83.77;101745.69;5112849;28;20092;-61
2022/07/24 04:38:23;;;;;;;30.35;22.27;;;;;;;16.52;83.31;101750.28;5112458;27;20027;-59
2022/07/24 04:40:49;;;;;;;30.70;22.30;;;;;;;16.56;83.12;101740.09;5112706;28;20054;-59
2022/07/24 04:43:14;;;;;;;31.67;23.45;;;;;;;16.56;83.26;101740.09;5112641;28;20429;-59
2022/07/24 04:45:39;;;;;;;31.40;24.40;;;;;;;16.55;83.48;101748.81;5112826;28;20126;-59
2022/07/24 04:48:05;;;;;;;30.90;22.63;;;;;;;16.53;83.29;101743.56;5112899;28;20129;-59
2022/07/24 04:50:30;;;;;;;30.70;23.42;;;;;;;16.63;83.06;101748.81;5112727;28;20027;-59
2022/07/24 04:52:57;;;;;;;30.15;24.00;;;;;;;16.64;83.30;101750.47;5112499;28;20115;-59
2022/07/24 04:55:22;;;;;;;32.97;24.63;;;;;;;16.65;83.39;101746.53;5113024;28;20039;-59
2022/07/24 04:57:47;;;;;;;31.20;23.58;;;;;;;16.65;83.71;101738.16;5111455;28;20104;-59
2022/07/24 05:00:14;;;;;;;31.27;24.60;;;;;;;16.72;83.50;101740.47;5112730;28;20482;-59
2022/07/24 05:02:40;;;;;;;32.08;24.23;;;;;;;16.75;83.55;101739.81;5112769;28;20110;-59
2022/07/24 05:05:05;;;;;;;33.08;24.50;;;;;;;16.80;83.63;101742.44;5112767;28;20074;-59
2022/07/24 05:07:31;;;;;;;32.13;25.13;;;;;;;16.87;83.60;101752.28;5112170;28;20030;-59
2022/07/24 05:09:57;;;;;;;32.90;25.27;;;;;;;16.97;83.07;101740.84;5112078;28;20531;-59
2022/07/24 05:12:23;;;;;;;31.63;24.88;;;;;;;17.00;83.03;101743.78;5112318;28;20027;-60
2022/07/24 05:14:48;;;;;;;34.53;25.80;;;;;;;17.01;83.17;101744.63;5112377;28;20443;-59
2022/07/24 05:17:14;;;;;;;35.08;26.83;;;;;;;17.03;83.23;101742.34;5112075;28;20074;-59
2022/07/24 05:19:40;;;;;;;34.47;27.52;;;;;;;17.00;83.84;101731.81;5112310;28;20524;-59
2022/07/24 05:22:05;;;;;;;34.15;27.08;;;;;;;17.08;83.65;101741.34;5112545;28;20344;-59
2022/07/24 05:24:30;;;;;;;35.33;27.50;;;;;;;17.11;83.37;101730.31;5111266;28;20023;-59
2022/07/24 05:26:55;;;;;;;33.65;26.05;;;;;;;17.23;82.89;101732.44;5112033;28;20031;-59
2022/07/24 05:29:21;;;;;;;34.38;26.38;;;;;;;17.28;83.03;101742.63;5112055;28;20130;-59
2022/07/24 05:31:46;;;;;;;36.72;27.52;;;;;;;17.30;82.91;101748.72;5112108;28;20106;-59
2022/07/24 05:34:12;;;;;;;35.42;27.75;;;;;;;17.34;83.10;101751.69;5112578;28;20348;-60
2022/07/24 05:36:37;;;;;;;36.83;28.80;;;;;;;17.39;82.97;101765.50;5112042;28;20429;-59
2022/07/24 05:39:04;;;;;;;38.15;30.02;;;;;;;17.39;83.20;101760.72;5111882;28;20064;-59
2022/07/24 05:41:29;;;;;;;38.15;31.27;;;;;;;17.40;83.30;101755.94;5112590;28;20096;-59
2022/07/24 05:43:55;;;;;;;38.03;30.92;;;;;;;17.45;83.67;101756.59;5112130;28;20095;-59
2022/07/24 05:46:20;;;;;;;39.85;31.13;;;;;;;17.56;83.24;101759.91;5111910;28;20477;-59
2022/07/24 05:48:45;;;;;;;39.28;31.67;;;;;;;17.62;83.23;101755.75;5112008;28;20039;-59
2022/07/24 05:51:11;;;;;;;39.17;32.22;;;;;;;17.70;83.09;101762.50;5111949;28;20050;-59
2022/07/24 05:53:37;;;;;;;40.38;31.95;;;;;;;17.75;82.90;101753.91;5111817;28;20110;-59
2022/07/24 05:56:03;;;;;;;42.58;34.58;;;;;;;17.72;82.98;101751.78;5111692;28;20039;-59
2022/07/24 05:58:28;;;;;;;40.22;34.20;;;;;;;17.89;82.47;101758.50;5111557;28;20031;-59
2022/07/24 06:00:54;;;;;;;42.25;32.20;;;;;;;18.01;82.23;101763.41;5111663;28;20020;-59
2022/07/24 06:03:19;;;;;;;42.92;32.53;;;;;;;18.08;81.73;101758.97;5111768;28;20082;-59
2022/07/24 06:05:44;;;;;;;42.90;34.28;;;;;;;18.13;81.26;101766.34;5111764;28;20024;-59
2022/07/24 06:08:10;;;;;;;40.65;32.80;;;;;;;18.20;81.49;101763.00;5111828;28;20374;-59
2022/07/24 06:10:35;;;;;;;41.63;33.65;;;;;;;18.28;80.93;101767.75;5111360;28;20431;-59
2022/07/24 06:13:00;;;;;;;39.75;32.88;;;;;;;18.37;80.65;101773.31;5111409;28;20019;-59
2022/07/24 06:15:26;;;;;;;40.38;32.63;;;;;;;18.43;80.82;101771.94;5111400;28;20446;-59
2022/07/24 06:17:51;;;;;;;44.92;33.67;;;;;;;18.49;80.64;101772.59;5111533;28;20506;-60
2022/07/24 06:20:17;;;;;;;42.00;33.50;;;;;;;18.53;80.27;101768.75;5111339;28;20068;-59
2022/07/24 06:22:44;;;;;;;40.05;32.05;;;;;;;18.63;79.67;101767.56;5111163;28;20023;-59
2022/07/24 06:25:11;;;;;;;40.78;32.00;;;;;;;18.71;79.37;101768.66;5111032;28;20050;-59
2022/07/24 06:27:45;;;;;;;41.58;31.67;;;;;;;18.74;79.12;101765.19;5110991;28;20031;-59
2022/07/24 06:30:19;;;;;;;38.13;30.95;;;;;;;18.80;78.23;101769.41;5110999;28;20055;-59
2022/07/24 06:32:45;;;;;;;37.97;30.85;;;;;;;18.91;78.41;101772.66;5110925;28;20389;-59
2022/07/24 06:35:11;;;;;;;38.60;30.15;;;;;;;19.01;78.84;101768.66;5110538;28;20024;-59
2022/07/24 06:37:36;;;;;;;37.05;30.45;;;;;;;19.12;78.61;101764.28;5110912;28;20035;-59
2022/07/24 06:40:03;;;;;;;39.28;29.42;;;;;;;19.24;78.42;101762.69;5110019;28;20483;-59
2022/07/24 06:42:28;;;;;;;34.22;26.33;;;;;;;19.30;76.10;101766.94;5110353;28;20514;-59
2022/07/24 06:44:53;;;;;;;34.35;26.45;;;;;;;19.36;75.65;101774.00;5110273;28;20072;-60
2022/07/24 06:47:19;;;;;;;33.20;25.85;;;;;;;19.38;74.25;101774.44;5110197;28;20023;-59
2022/07/24 06:49:44;;;;;;;33.63;25.77;;;;;;;19.46;74.61;101776.34;5109962;28;20105;-59
2022/07/24 06:52:09;;;;;;;32.13;24.33;;;;;;;19.51;73.69;101763.28;5110074;28;20069;-59
2022/07/24 06:54:35;;;;;;;34.17;25.08;;;;;;;19.63;73.52;101763.31;5109964;28;20116;-59
2022/07/24 06:57:00;;;;;;;32.08;24.33;;;;;;;19.69;72.03;101759.13;5109774;28;20455;-59
2022/07/24 06:59:25;;;;;;;32.90;23.35;;;;;;;19.76;70.71;101769.78;5109657;28;20050;-60
2022/07/24 07:01:51;;;;;;;31.45;23.17;;;;;;;19.82;70.80;101764.78;5110087;28;20036;-59
2022/07/24 07:04:17;;;;;;;30.10;22.67;;;;;;;19.90;70.07;101761.88;5109926;28;20060;-59
2022/07/24 07:06:42;;;;;;;29.85;20.75;;;;;;;20.04;69.59;101761.53;5110284;28;20439;-59
2022/07/24 07:09:07;;;;;;;28.15;20.45;;;;;;;20.08;66.46;101761.66;5108464;28;20051;-59
2022/07/24 07:11:33;;;;;;;29.42;21.33;;;;;;;20.11;66.71;101772.22;5110604;28;20038;-59
2022/07/24 07:13:58;;;;;;;27.75;20.40;;;;;;;20.18;66.31;101766.03;5111146;28;20020;-59
2022/07/24 07:16:23;;;;;;;26.75;19.10;;;;;;;20.27;66.50;101759.09;5110545;28;20023;-59
2022/07/24 07:18:49;;;;;;;25.58;18.40;;;;;;;20.41;65.22;101755.94;5110250;28;20028;-59
2022/07/24 07:21:14;;;;;;;25.05;17.60;;;;;;;20.55;65.11;101751.97;5110852;28;20135;-59
2022/07/24 07:23:40;;;;;;;25.70;16.40;;;;;;;20.63;63.35;101756.63;5110713;28;20075;-60
2022/07/24 07:26:05;;;;;;;24.48;16.42;;;;;;;20.72;62.80;101764.94;5110703;28;20027;-60
2022/07/24 07:28:30;;;;;;;25.88;16.67;;;;;;;20.79;62.21;101770.00;5110621;28;20421;-59
2022/07/24 07:30:56;;;;;;;22.55;15.45;;;;;;;20.83;61.13;101768.13;5110557;28;20042;-60
2022/07/24 07:33:21;;;;;;;22.05;14.65;;;;;;;20.87;60.89;101769.06;5109385;28;20035;-58
2022/07/24 07:35:47;;;;;;;22.85;14.35;;;;;;;20.94;59.21;101768.44;5110692;28;20118;-60
2022/07/24 07:38:12;;;;;;;22.65;13.75;;;;;;;21.02;57.77;101770.28;5110917;28;20055;-60
2022/07/24 07:40:37;;;;;;;21.05;13.20;;;;;;;21.10;56.99;101771.31;5110376;28;20096;-58
2022/07/24 07:43:03;;;;;;;21.50;12.52;;;;;;;21.18;55.75;101768.38;5110860;28;20083;-58
2022/07/24 07:45:28;;;;;;;21.17;12.57;;;;;;;21.26;55.93;101757.31;5110986;28;20031;-60
2022/07/24 07:47:54;;;;;;;20.83;12.98;;;;;;;21.32;56.72;101759.53;5112770;28;20188;-60
2022/07/24 07:50:19;;;;;;;20.50;12.23;;;;;;;21.42;55.21;101765.81;5114230;28;20080;-60
2022/07/24 07:52:44;;;;;;;20.20;11.75;;;;;;;21.54;55.46;101764.94;5114167;28;20031;-60
2022/07/24 07:55:10;;;;;;;21.55;12.48;;;;;;;21.64;55.14;101750.38;5114695;28;20110;-60
2022/07/24 07:57:36;;;;;;;20.75;12.57;;;;;;;21.73;53.98;101765.09;5114133;28;20030;-60
2022/07/24 08:00:02;;;;;;;19.95;11.25;;;;;;;21.79;53.96;101757.22;5114472;28;20034;-60
2022/07/24 08:02:29;;;;;;;18.10;10.20;;;;;;;21.87;51.56;101758.22;5114186;28;20039;-60
2022/07/24 08:04:54;;;;;;;18.58;9.43;;;;;;;21.90;50.46;101749.88;5114212;28;20351;-60
2022/07/24 08:07:20;;;;;;;18.90;9.85;;;;;;;22.02;51.34;101750.94;5114511;28;20023;-59
2022/07/24 08:09:45;;;;;;;20.45;10.52;;;;;;;22.12;51.56;101744.75;5113947;28;20024;-59
2022/07/24 08:12:10;;;;;;;18.90;10.90;;;;;;;22.12;52.05;101739.97;5114031;28;20379;-60
2022/07/24 08:14:36;;;;;;;19.58;10.40;;;;;;;22.20;52.23;101734.50;5114071;28;20097;-60
2022/07/24 08:17:02;;;;;;;19.55;9.70;;;;;;;22.30;52.20;101739.56;5113488;28;20107;-59
2022/07/24 08:19:28;;;;;;;18.13;9.77;;;;;;;22.42;50.86;101747.13;5113682;28;20214;-59
2022/07/24 08:21:53;;;;;;;14.93;8.80;;;;;;;22.54;50.47;101755.50;5113887;28;20328;-59
2022/07/24 08:24:20;;;;;;;15.85;8.70;;;;;;;22.65;49.54;101761.38;5113912;28;20103;-60
2022/07/24 08:26:49;;;;;;;15.52;8.85;;;;;;;22.71;50.26;101750.63;5113752;28;20102;-59
2022/07/24 08:29:15;;;;;;;18.10;9.65;;;;;;;22.75;50.11;101757.16;5113366;28;20085;-59
2022/07/24 08:31:40;;;;;;;16.75;9.43;;;;;;;22.82;50.04;101753.66;5113439;28;20024;-60
2022/07/24 08:34:06;;;;;;;16.92;9.10;;;;;;;22.91;49.49;101754.28;5113209;28;20111;-60
2022/07/24 08:36:31;;;;;;;16.50;9.00;;;;;;;23.00;49.02;101749.22;5113508;28;20038;-59
2022/07/24 08:38:57;;;;;;;13.32;8.27;;;;;;;23.09;48.63;101749.03;5113481;28;20108;-59
2022/07/24 08:41:22;;;;;;;16.05;8.95;;;;;;;23.15;47.55;101750.34;5111595;28;20046;-59
2022/07/24 08:43:48;;;;;;;14.27;8.40;;;;;;;23.22;47.61;101752.53;5113537;28;20055;-59
2022/07/24 08:46:15;;;;;;;15.27;8.63;;;;;;;23.28;47.39;101741.78;5113622;28;20039;-59
2022/07/24 08:48:45;;;;;;;14.88;8.30;;;;;;;23.40;47.26;101743.63;5113319;28;20024;-60
2022/07/24 08:51:15;;;;;;;14.43;8.20;;;;;;;23.44;47.21;101734.03;5113473;28;20089;-59
2022/07/24 08:53:42;;;;;;;15.98;8.55;;;;;;;23.45;46.73;101737.69;5113337;28;20028;-59
2022/07/24 08:56:07;;;;;;;14.52;8.20;;;;;;;23.55;46.87;101737.06;5113191;28;20034;-59
2022/07/24 08:58:38;;;;;;;12.77;8.00;;;;;;;23.59;45.81;101737.13;5113393;28;20110;-60
2022/07/24 09:01:03;;;;;;;14.48;8.13;;;;;;;23.57;46.31;101734.66;5112899;28;20566;-60
2022/07/24 09:03:38;;;;;;;12.85;7.82;;;;;;;23.61;46.03;101735.56;5113733;28;20114;-61
2022/07/24 09:06:07;;;;;;;12.57;7.72;;;;;;;23.70;46.45;101734.50;5113117;28;20023;-60
2022/07/24 09:08:33;;;;;;;13.32;7.90;;;;;;;23.76;45.66;101736.63;5113339;28;20046;-60
2022/07/24 09:11:04;;;;;;;14.30;7.95;;;;;;;23.81;46.53;101727.84;5113138;28;20324;-62
2022/07/24 09:14:29;;;;;;;14.15;7.80;;;;;;;23.92;46.09;101730.88;5112896;28;20042;-60
2022/07/24 09:16:23;;;;;;;14.68;8.10;;;;;;;23.97;45.88;101729.78;5112640;28;20057;-60
2022/07/24 09:18:50;;;;;;;13.73;8.00;;;;;;;24.05;45.93;101739.16;5113311;28;20031;-60
2022/07/24 09:21:17;;;;;;;13.25;7.82;;;;;;;24.08;46.52;101729.94;5112574;28;20016;-60
2022/07/24 09:23:44;;;;;;;14.98;8.20;;;;;;;24.18;46.51;101732.13;5112716;27;20068;-60
2022/07/24 09:26:10;;;;;;;14.25;8.10;;;;;;;24.18;46.52;101723.66;5111247;28;20605;-60
2022/07/24 09:28:48;;;;;;;16.42;8.85;;;;;;;24.24;46.88;101721.31;5112520;28;20016;-60
2022/07/24 09:31:13;;;;;;;18.17;10.20;;;;;;;24.29;46.84;101727.47;5112492;28;20118;-61
2022/07/24 09:33:38;;;;;;;18.50;9.88;;;;;;;24.33;46.56;101709.72;5111073;28;20128;-60
2022/07/24 09:36:15;;;;;;;16.33;9.13;;;;;;;24.34;47.22;101712.19;5112351;28;20019;-60
2022/07/24 09:38:49;;;;;;;14.45;8.50;;;;;;;24.48;47.13;101707.91;5111918;28;20043;-60
2022/07/24 09:41:20;;;;;;;14.35;8.35;;;;;;;24.60;46.07;101722.69;5111896;28;20054;-60
2022/07/24 09:43:57;;;;;;;15.13;8.38;;;;;;;24.66;46.26;101703.34;5111581;27;20431;-60
2022/07/24 09:46:25;;;;;;;13.85;8.30;;;;;;;24.70;46.11;101709.91;5111889;28;20210;-60
2022/07/24 09:48:57;;;;;;;14.48;8.30;;;;;;;24.79;46.59;101712.44;5111664;28;20099;-60
2022/07/24 09:51:23;;;;;;;14.82;8.48;;;;;;;24.91;47.46;101700.88;5111970;28;20487;-60
2022/07/24 09:53:56;;;;;;;15.88;8.43;;;;;;;25.04;46.21;101709.91;5111898;28;20019;-60
2022/07/24 09:56:22;;;;;;;16.58;8.90;;;;;;;25.04;45.75;101704.25;5111796;28;20074;-60
2022/07/24 09:58:51;;;;;;;15.10;8.57;;;;;;;25.03;44.94;101715.97;5110223;28;20055;-60
2022/07/24 10:01:19;;;;;;;15.73;8.57;;;;;;;25.09;45.64;101703.09;5112317;28;20023;-60
2022/07/24 10:03:46;;;;;;;16.67;8.65;;;;;;;25.19;45.69;101705.25;5112188;28;20022;-60
2022/07/24 10:06:13;;;;;;;15.80;8.40;;;;;;;25.21;46.05;101700.00;5111802;28;20100;-60
2022/07/24 10:08:41;;;;;;;15.35;8.80;;;;;;;25.25;45.88;101697.22;5111956;28;20092;-60
2022/07/24 10:11:06;;;;;;;13.85;8.32;;;;;;;25.30;45.70;101688.38;5109749;28;20020;-60
2022/07/24 10:13:33;;;;;;;14.50;8.48;;;;;;;25.41;44.79;101687.72;5111652;28;20064;-60
2022/07/24 10:16:13;;;;;;;14.75;7.95;;;;;;;25.49;45.29;101690.22;5110100;28;20085;-60
2022/07/24 10:19:03;;;;;;;15.50;8.48;;;;;;;25.58;45.50;101683.41;5111445;28;20055;-60
2022/07/24 10:21:34;;;;;;;15.10;8.60;;;;;;;25.64;44.57;101674.19;5111156;28;20462;-60
2022/07/24 10:24:11;;;;;;;15.80;8.10;;;;;;;25.76;45.10;101677.94;5111339;28;20032;-60
2022/07/24 10:26:45;;;;;;;13.50;7.93;;;;;;;25.82;44.83;101665.84;5111856;28;20116;-60
2022/07/24 10:29:24;;;;;;;13.65;7.80;;;;;;;25.94;44.13;101672.38;5111558;28;20032;-60
2022/07/24 10:31:52;;;;;;;15.27;8.20;;;;;;;25.84;42.60;101669.06;5111343;28;20454;-60
2022/07/24 10:34:24;;;;;;;13.32;7.57;;;;;;;25.92;43.60;101669.16;5109932;28;20071;-60
2022/07/24 10:37:01;;;;;;;15.52;8.32;;;;;;;26.01;44.46;101664.75;5110777;28;20421;-58
2022/07/24 10:39:34;;;;;;;15.93;7.80;;;;;;;26.06;43.54;101659.94;5110556;28;20035;-58
2022/07/24 10:42:05;;;;;;;15.55;8.27;;;;;;;26.25;44.15;101664.53;5110984;28;20028;-59
2022/07/24 10:44:30;;;;;;;14.98;7.85;;;;;;;26.38;44.49;101660.19;5110854;28;20016;-58
2022/07/24 10:47:00;;;;;;;15.68;8.23;;;;;;;26.48;43.03;101664.28;5110988;28;20186;-59
2022/07/24 10:49:46;;;;;;;12.68;7.60;;;;;;;26.67;44.05;101662.34;5111008;28;20032;-59
2022/07/24 10:52:26;;;;;;;12.45;7.82;;;;;;;26.73;42.56;101655.09;5110748;28;20470;-59
2022/07/24 10:55:28;;;;;;;11.95;7.70;;;;;;;26.95;43.59;101664.50;5110839;28;20031;-60
2022/07/24 10:57:58;;;;;;;15.40;8.63;;;;;;;26.97;40.02;101664.09;5105734;28;20123;-59
2022/07/24 11:00:31;;;;;;;13.88;7.80;;;;;;;26.89;41.61;101651.91;5110996;28;20077;-60
2022/07/24 11:03:07;;;;;;;13.68;8.00;;;;;;;26.99;41.21;101656.00;5111110;28;20023;-61
2022/07/24 11:05:38;;;;;;;13.13;7.88;;;;;;;26.88;40.27;101651.09;5111058;28;20107;-60
2022/07/24 11:08:13;;;;;;;14.00;7.97;;;;;;;26.91;41.10;101638.97;5110722;28;20046;-61
2022/07/24 11:10:54;;;;;;;16.38;8.65;;;;;;;27.03;41.95;101646.28;5110824;28;20030;-59